Terrace Bay, Canada
Current Conditions -  °F | °C
As of 7:00 AM on Thursday 27 Nov 2014 (Local Time) from CYGQ Reporting Station
Clear Clear  
Wind Chill: -20°   Ceiling: Unl
Heat Index: -20°   Visibility: 15mi
Dew Point: -27°   Wind: 2mph
Humidity: 69%   Direction: 280°W
Pressure: 30.32"   Gusts: NA
Location:  48.78°N, 87.1°W
Report Text: CYGQ 271200Z 28002KT 15SM SKC M29/M33 A3032 RMK SLP316
Loading
Personal Weather Stations






























Interactive Weather Map New forecast layout! Learn more

10-Day Weather Forecast

Advertisements
Track Severe Weather on mobile